sensor_id;sensor_type;location;lat;lon;timestamp;temperature;humidity
3186;DHT22;1604;53.700;10.252;2023-04-12T00:02:21;2.50;99.90
3186;DHT22;1604;53.700;10.252;2023-04-12T00:05:24;2.50;99.90
3186;DHT22;1604;53.700;10.252;2023-04-12T00:08:27;2.60;99.90
3186;DHT22;1604;53.700;10.252;2023-04-12T00:11:33;2.60;99.90
3186;DHT22;1604;53.700;10.252;2023-04-12T00:14:35;2.60;99.90
3186;DHT22;1604;53.700;10.252;2023-04-12T00:17:37;2.50;99.90
3186;DHT22;1604;53.700;10.252;2023-04-12T00:20:41;2.50;99.90
3186;DHT22;1604;53.700;10.252;2023-04-12T00:23:44;2.50;99.90
3186;DHT22;1604;53.700;10.252;2023-04-12T00:26:46;2.60;99.90
3186;DHT22;1604;53.700;10.252;2023-04-12T00:29:48;2.60;99.90
3186;DHT22;1604;53.700;10.252;2023-04-12T00:32:50;2.70;99.90
3186;DHT22;1604;53.700;10.252;2023-04-12T00:35:53;2.70;99.90
3186;DHT22;1604;53.700;10.252;2023-04-12T00:38:55;2.70;99.90
3186;DHT22;1604;53.700;10.252;2023-04-12T00:41:58;2.80;99.90
3186;DHT22;1604;53.700;10.252;2023-04-12T00:45:04;2.80;99.90
3186;DHT22;1604;53.700;10.252;2023-04-12T00:48:07;2.90;99.90
3186;DHT22;1604;53.700;10.252;2023-04-12T00:51:11;2.90;99.90
3186;DHT22;1604;53.700;10.252;2023-04-12T00:54:13;2.90;99.90
3186;DHT22;1604;53.700;10.252;2023-04-12T00:57:17;2.90;99.90
3186;DHT22;1604;53.700;10.252;2023-04-12T01:00:19;2.90;99.90
3186;DHT22;1604;53.700;10.252;2023-04-12T01:03:22;2.90;99.90
3186;DHT22;1604;53.700;10.252;2023-04-12T01:06:33;3.00;99.90
3186;DHT22;1604;53.700;10.252;2023-04-12T01:09:43;3.00;99.90
3186;DHT22;1604;53.700;10.252;2023-04-12T01:12:52;3.00;99.90
3186;DHT22;1604;53.700;10.252;2023-04-12T01:16:00;3.00;99.90
3186;DHT22;1604;53.700;10.252;2023-04-12T01:19:17;2.90;99.90
3186;DHT22;1604;53.700;10.252;2023-04-12T01:22:33;2.90;99.90
3186;DHT22;1604;53.700;10.252;2023-04-12T01:25:39;2.90;99.90
3186;DHT22;1604;53.700;10.252;2023-04-12T01:28:52;2.90;99.90
3186;DHT22;1604;53.700;10.252;2023-04-12T01:31:57;2.90;99.90
3186;DHT22;1604;53.700;10.252;2023-04-12T01:35:01;2.80;99.90
3186;DHT22;1604;53.700;10.252;2023-04-12T01:38:04;2.80;99.90
3186;DHT22;1604;53.700;10.252;2023-04-12T01:41:07;2.80;99.90
3186;DHT22;1604;53.700;10.252;2023-04-12T01:44:13;2.80;99.90
3186;DHT22;1604;53.700;10.252;2023-04-12T01:47:15;2.80;99.90
3186;DHT22;1604;53.700;10.252;2023-04-12T01:50:20;2.80;99.90
3186;DHT22;1604;53.700;10.252;2023-04-12T01:53:30;2.70;99.90
3186;DHT22;1604;53.700;10.252;2023-04-12T01:56:34;2.70;99.90
3186;DHT22;1604;53.700;10.252;2023-04-12T01:59:40;2.70;99.90
3186;DHT22;1604;53.700;10.252;2023-04-12T02:02:42;2.70;99.90
3186;DHT22;1604;53.700;10.252;2023-04-12T02:05:45;2.70;99.90
3186;DHT22;1604;53.700;10.252;2023-04-12T02:08:47;2.70;99.90
3186;DHT22;1604;53.700;10.252;2023-04-12T02:11:49;2.70;99.90
3186;DHT22;1604;53.700;10.252;2023-04-12T02:14:52;2.70;99.90
3186;DHT22;1604;53.700;10.252;2023-04-12T02:17:54;2.70;99.90
3186;DHT22;1604;53.700;10.252;2023-04-12T02:20:58;2.80;99.90
3186;DHT22;1604;53.700;10.252;2023-04-12T02:24:00;2.80;99.90
3186;DHT22;1604;53.700;10.252;2023-04-12T02:27:02;2.80;99.90
3186;DHT22;1604;53.700;10.252;2023-04-12T02:30:08;2.80;99.90
3186;DHT22;1604;53.700;10.252;2023-04-12T02:33:10;2.90;99.90
3186;DHT22;1604;53.700;10.252;2023-04-12T02:36:12;2.90;99.90
3186;DHT22;1604;53.700;10.252;2023-04-12T02:39:15;2.90;99.90
3186;DHT22;1604;53.700;10.252;2023-04-12T02:42:18;2.90;99.90
3186;DHT22;1604;53.700;10.252;2023-04-12T02:45:21;2.90;99.90
3186;DHT22;1604;53.700;10.252;2023-04-12T02:48:23;2.90;99.90
3186;DHT22;1604;53.700;10.252;2023-04-12T02:51:25;3.00;99.90
3186;DHT22;1604;53.700;10.252;2023-04-12T02:54:27;3.00;99.90
3186;DHT22;1604;53.700;10.252;2023-04-12T02:57:29;3.00;99.90
3186;DHT22;1604;53.700;10.252;2023-04-12T03:00:33;3.00;99.90
3186;DHT22;1604;53.700;10.252;2023-04-12T03:03:34;3.00;99.90
3186;DHT22;1604;53.700;10.252;2023-04-12T03:06:36;3.10;99.90
3186;DHT22;1604;53.700;10.252;2023-04-12T03:09:40;3.10;99.90
3186;DHT22;1604;53.700;10.252;2023-04-12T03:12:44;3.10;99.90
3186;DHT22;1604;53.700;10.252;2023-04-12T03:15:47;3.20;99.90
3186;DHT22;1604;53.700;10.252;2023-04-12T03:18:50;3.20;99.90
3186;DHT22;1604;53.700;10.252;2023-04-12T03:21:51;3.20;99.90
3186;DHT22;1604;53.700;10.252;2023-04-12T03:24:53;3.20;99.90
3186;DHT22;1604;53.700;10.252;2023-04-12T03:27:56;3.20;99.90
3186;DHT22;1604;53.700;10.252;2023-04-12T03:30:59;3.20;99.90
3186;DHT22;1604;53.700;10.252;2023-04-12T03:34:02;3.20;99.90
3186;DHT22;1604;53.700;10.252;2023-04-12T03:37:04;3.30;99.90
3186;DHT22;1604;53.700;10.252;2023-04-12T03:40:07;3.30;99.90
3186;DHT22;1604;53.700;10.252;2023-04-12T03:43:09;3.30;99.90
3186;DHT22;1604;53.700;10.252;2023-04-12T03:46:12;3.40;99.90
3186;DHT22;1604;53.700;10.252;2023-04-12T03:49:16;3.50;99.90
3186;DHT22;1604;53.700;10.252;2023-04-12T03:52:17;3.50;99.90
3186;DHT22;1604;53.700;10.252;2023-04-12T03:55:19;3.60;99.90
3186;DHT22;1604;53.700;10.252;2023-04-12T03:58:22;3.60;99.90
3186;DHT22;1604;53.700;10.252;2023-04-12T04:01:25;3.70;99.90
3186;DHT22;1604;53.700;10.252;2023-04-12T04:04:27;3.70;99.90
3186;DHT22;1604;53.700;10.252;2023-04-12T04:07:29;3.70;99.90
3186;DHT22;1604;53.700;10.252;2023-04-12T04:10:32;3.70;99.90
3186;DHT22;1604;53.700;10.252;2023-04-12T04:13:34;3.80;99.90
3186;DHT22;1604;53.700;10.252;2023-04-12T04:16:38;3.90;99.90
3186;DHT22;1604;53.700;10.252;2023-04-12T04:19:41;3.90;99.90
3186;DHT22;1604;53.700;10.252;2023-04-12T04:22:43;3.90;99.90
3186;DHT22;1604;53.700;10.252;2023-04-12T04:25:47;4.00;99.90
3186;DHT22;1604;53.700;10.252;2023-04-12T04:28:49;4.00;99.90
3186;DHT22;1604;53.700;10.252;2023-04-12T04:31:53;4.00;99.90
3186;DHT22;1604;53.700;10.252;2023-04-12T04:34:57;4.00;99.90
3186;DHT22;1604;53.700;10.252;2023-04-12T04:37:59;4.00;99.90
3186;DHT22;1604;53.700;10.252;2023-04-12T04:41:01;4.10;99.90
3186;DHT22;1604;53.700;10.252;2023-04-12T04:44:04;4.10;99.90
3186;DHT22;1604;53.700;10.252;2023-04-12T04:47:10;4.20;99.90
3186;DHT22;1604;53.700;10.252;2023-04-12T04:50:12;4.10;99.90
3186;DHT22;1604;53.700;10.252;2023-04-12T04:53:16;4.10;99.90
3186;DHT22;1604;53.700;10.252;2023-04-12T04:56:18;4.20;99.90
3186;DHT22;1604;53.700;10.252;2023-04-12T04:59:22;4.30;99.90
3186;DHT22;1604;53.700;10.252;2023-04-12T05:02:25;4.20;99.90
3186;DHT22;1604;53.700;10.252;2023-04-12T05:05:28;4.20;99.90
3186;DHT22;1604;53.700;10.252;2023-04-12T05:08:30;4.20;99.90
3186;DHT22;1604;53.700;10.252;2023-04-12T05:11:31;4.20;99.90
3186;DHT22;1604;53.700;10.252;2023-04-12T05:14:33;4.20;99.90
3186;DHT22;1604;53.700;10.252;2023-04-12T05:17:37;4.20;99.90
3186;DHT22;1604;53.700;10.252;2023-04-12T05:20:39;4.30;99.90
3186;DHT22;1604;53.700;10.252;2023-04-12T05:23:43;4.30;99.90
3186;DHT22;1604;53.700;10.252;2023-04-12T05:26:45;4.30;99.90
3186;DHT22;1604;53.700;10.252;2023-04-12T05:29:46;4.30;99.90
3186;DHT22;1604;53.700;10.252;2023-04-12T05:32:50;4.30;99.90
3186;DHT22;1604;53.700;10.252;2023-04-12T05:35:52;4.30;99.90
3186;DHT22;1604;53.700;10.252;2023-04-12T05:38:54;4.40;99.90
3186;DHT22;1604;53.700;10.252;2023-04-12T05:41:56;4.50;99.90
3186;DHT22;1604;53.700;10.252;2023-04-12T05:44:58;4.50;99.90
3186;DHT22;1604;53.700;10.252;2023-04-12T05:48:02;4.60;99.90
3186;DHT22;1604;53.700;10.252;2023-04-12T05:51:04;4.80;99.90
3186;DHT22;1604;53.700;10.252;2023-04-12T05:54:06;4.90;99.90
3186;DHT22;1604;53.700;10.252;2023-04-12T05:57:08;5.10;99.90
3186;DHT22;1604;53.700;10.252;2023-04-12T06:00:11;5.20;99.90
3186;DHT22;1604;53.700;10.252;2023-04-12T06:03:17;5.40;99.90
3186;DHT22;1604;53.700;10.252;2023-04-12T06:06:19;5.50;99.90
3186;DHT22;1604;53.700;10.252;2023-04-12T06:09:21;5.60;99.90
3186;DHT22;1604;53.700;10.252;2023-04-12T06:12:23;5.90;99.90
3186;DHT22;1604;53.700;10.252;2023-04-12T06:15:25;6.00;99.90
3186;DHT22;1604;53.700;10.252;2023-04-12T06:18:29;6.20;99.90
3186;DHT22;1604;53.700;10.252;2023-04-12T06:21:31;6.30;99.90
3186;DHT22;1604;53.700;10.252;2023-04-12T06:24:32;6.50;99.90
3186;DHT22;1604;53.700;10.252;2023-04-12T06:27:35;6.60;99.90
3186;DHT22;1604;53.700;10.252;2023-04-12T06:30:37;6.80;99.90
3186;DHT22;1604;53.700;10.252;2023-04-12T06:33:40;7.00;99.90
3186;DHT22;1604;53.700;10.252;2023-04-12T06:36:42;7.10;99.90
3186;DHT22;1604;53.700;10.252;2023-04-12T06:39:47;7.30;99.90
3186;DHT22;1604;53.700;10.252;2023-04-12T06:42:49;7.40;99.50
3186;DHT22;1604;53.700;10.252;2023-04-12T06:45:53;7.60;99.20
3186;DHT22;1604;53.700;10.252;2023-04-12T06:48:57;7.80;98.00
3186;DHT22;1604;53.700;10.252;2023-04-12T06:51:59;8.00;97.00
3186;DHT22;1604;53.700;10.252;2023-04-12T06:55:01;8.10;97.40
3186;DHT22;1604;53.700;10.252;2023-04-12T06:58:03;8.20;96.50
3186;DHT22;1604;53.700;10.252;2023-04-12T07:01:05;8.30;95.50
3186;DHT22;1604;53.700;10.252;2023-04-12T07:04:09;8.50;95.10
3186;DHT22;1604;53.700;10.252;2023-04-12T07:07:11;8.60;94.80
3186;DHT22;1604;53.700;10.252;2023-04-12T07:10:13;8.70;94.50
3186;DHT22;1604;53.700;10.252;2023-04-12T07:13:15;8.90;93.00
3186;DHT22;1604;53.700;10.252;2023-04-12T07:16:17;9.10;92.40
3186;DHT22;1604;53.700;10.252;2023-04-12T07:19:23;9.20;92.10
3186;DHT22;1604;53.700;10.252;2023-04-12T07:22:25;9.40;91.50
3186;DHT22;1604;53.700;10.252;2023-04-12T07:25:27;9.50;90.60
3186;DHT22;1604;53.700;10.252;2023-04-12T07:28:29;9.60;90.90
3186;DHT22;1604;53.700;10.252;2023-04-12T07:31:35;9.70;90.00
3186;DHT22;1604;53.700;10.252;2023-04-12T07:34:41;10.00;88.80
3186;DHT22;1604;53.700;10.252;2023-04-12T07:37:43;10.10;88.10
3186;DHT22;1604;53.700;10.252;2023-04-12T07:40:45;10.20;86.50
3186;DHT22;1604;53.700;10.252;2023-04-12T07:43:46;10.20;87.20
3186;DHT22;1604;53.700;10.252;2023-04-12T07:46:48;10.20;86.80
3186;DHT22;1604;53.700;10.252;2023-04-12T07:49:52;10.20;86.10
3186;DHT22;1604;53.700;10.252;2023-04-12T07:53:01;10.10;86.40
3186;DHT22;1604;53.700;10.252;2023-04-12T07:56:18;10.00;87.10
3186;DHT22;1604;53.700;10.252;2023-04-12T07:59:20;9.90;88.20
3186;DHT22;1604;53.700;10.252;2023-04-12T08:02:22;9.90;88.40
3186;DHT22;1604;53.700;10.252;2023-04-12T08:05:26;10.00;89.80
3186;DHT22;1604;53.700;10.252;2023-04-12T08:08:28;10.10;88.10
3186;DHT22;1604;53.700;10.252;2023-04-12T08:11:30;10.10;88.70
3186;DHT22;1604;53.700;10.252;2023-04-12T08:14:34;10.10;88.60
3186;DHT22;1604;53.700;10.252;2023-04-12T08:17:36;10.10;88.30
3186;DHT22;1604;53.700;10.252;2023-04-12T08:20:40;10.10;88.80
3186;DHT22;1604;53.700;10.252;2023-04-12T08:23:43;10.10;88.60
3186;DHT22;1604;53.700;10.252;2023-04-12T08:26:46;10.10;88.10
3186;DHT22;1604;53.700;10.252;2023-04-12T08:29:48;10.10;88.20
3186;DHT22;1604;53.700;10.252;2023-04-12T08:32:50;10.10;87.30
3186;DHT22;1604;53.700;10.252;2023-04-12T08:35:53;10.20;86.80
3186;DHT22;1604;53.700;10.252;2023-04-12T08:38:57;10.10;88.40
3186;DHT22;1604;53.700;10.252;2023-04-12T08:42:00;10.20;87.90
3186;DHT22;1604;53.700;10.252;2023-04-12T08:45:05;10.20;88.30
3186;DHT22;1604;53.700;10.252;2023-04-12T08:48:07;10.30;87.80
3186;DHT22;1604;53.700;10.252;2023-04-12T08:51:12;10.30;88.50
3186;DHT22;1604;53.700;10.252;2023-04-12T08:54:15;10.30;88.50
3186;DHT22;1604;53.700;10.252;2023-04-12T08:57:17;10.30;88.70
3186;DHT22;1604;53.700;10.252;2023-04-12T09:00:21;10.30;88.70
3186;DHT22;1604;53.700;10.252;2023-04-12T09:03:23;10.30;88.30
3186;DHT22;1604;53.700;10.252;2023-04-12T09:06:26;10.30;88.20
3186;DHT22;1604;53.700;10.252;2023-04-12T09:09:41;10.20;89.10
3186;DHT22;1604;53.700;10.252;2023-04-12T09:12:46;10.20;89.90
3186;DHT22;1604;53.700;10.252;2023-04-12T09:15:48;10.20;89.70
3186;DHT22;1604;53.700;10.252;2023-04-12T09:18:51;10.30;89.70
3186;DHT22;1604;53.700;10.252;2023-04-12T09:21:55;10.30;89.90
3186;DHT22;1604;53.700;10.252;2023-04-12T09:24:58;10.40;89.90
3186;DHT22;1604;53.700;10.252;2023-04-12T09:28:00;10.40;89.50
3186;DHT22;1604;53.700;10.252;2023-04-12T09:31:02;10.50;89.30
3186;DHT22;1604;53.700;10.252;2023-04-12T09:34:06;10.60;88.90
3186;DHT22;1604;53.700;10.252;2023-04-12T09:37:14;10.60;88.90
3186;DHT22;1604;53.700;10.252;2023-04-12T09:40:23;10.70;88.00
3186;DHT22;1604;53.700;10.252;2023-04-12T09:43:39;10.80;87.70
3186;DHT22;1604;53.700;10.252;2023-04-12T09:46:49;10.80;86.40
3186;DHT22;1604;53.700;10.252;2023-04-12T09:49:51;10.80;86.00
3186;DHT22;1604;53.700;10.252;2023-04-12T09:52:56;10.90;87.00
3186;DHT22;1604;53.700;10.252;2023-04-12T09:55:58;11.00;86.00
3186;DHT22;1604;53.700;10.252;2023-04-12T09:59:04;11.10;84.70
3186;DHT22;1604;53.700;10.252;2023-04-12T10:02:08;11.20;84.80
3186;DHT22;1604;53.700;10.252;2023-04-12T10:05:14;11.20;85.10
3186;DHT22;1604;53.700;10.252;2023-04-12T10:08:18;11.20;84.60
3186;DHT22;1604;53.700;10.252;2023-04-12T10:11:20;11.30;85.00
3186;DHT22;1604;53.700;10.252;2023-04-12T10:14:23;11.30;85.10
3186;DHT22;1604;53.700;10.252;2023-04-12T10:17:28;11.40;83.50
3186;DHT22;1604;53.700;10.252;2023-04-12T10:20:30;11.40;83.30
3186;DHT22;1604;53.700;10.252;2023-04-12T11:35:36;11.30;91.40
3186;DHT22;1604;53.700;10.252;2023-04-12T11:38:38;11.00;95.00
3186;DHT22;1604;53.700;10.252;2023-04-12T11:41:43;10.70;97.40
3186;DHT22;1604;53.700;10.252;2023-04-12T11:44:46;10.50;98.40
3186;DHT22;1604;53.700;10.252;2023-04-12T11:47:48;10.40;98.80
3186;DHT22;1604;53.700;10.252;2023-04-12T11:50:53;10.20;99.90
3186;DHT22;1604;53.700;10.252;2023-04-12T11:57:58;10.00;99.90
3186;DHT22;1604;53.700;10.252;2023-04-12T12:01:03;9.80;99.90
3186;DHT22;1604;53.700;10.252;2023-04-12T12:04:05;9.70;99.90
3186;DHT22;1604;53.700;10.252;2023-04-12T12:07:11;9.60;99.90
3186;DHT22;1604;53.700;10.252;2023-04-12T12:10:13;9.50;99.90
3186;DHT22;1604;53.700;10.252;2023-04-12T12:13:15;9.40;99.90
3186;DHT22;1604;53.700;10.252;2023-04-12T12:16:22;9.40;99.90
3186;DHT22;1604;53.700;10.252;2023-04-12T12:19:27;9.40;99.90
3186;DHT22;1604;53.700;10.252;2023-04-12T12:22:31;9.30;99.90
3186;DHT22;1604;53.700;10.252;2023-04-12T12:25:33;9.30;99.90
3186;DHT22;1604;53.700;10.252;2023-04-12T12:28:36;9.20;99.90
3186;DHT22;1604;53.700;10.252;2023-04-12T12:31:45;9.20;99.90
3186;DHT22;1604;53.700;10.252;2023-04-12T12:34:52;9.10;99.90
3186;DHT22;1604;53.700;10.252;2023-04-12T12:37:56;9.00;99.90
3186;DHT22;1604;53.700;10.252;2023-04-12T12:40:58;9.00;99.90
3186;DHT22;1604;53.700;10.252;2023-04-12T12:44:14;9.00;99.90
3186;DHT22;1604;53.700;10.252;2023-04-12T12:47:16;9.00;99.90
3186;DHT22;1604;53.700;10.252;2023-04-12T12:50:20;9.00;99.90
3186;DHT22;1604;53.700;10.252;2023-04-12T12:53:24;9.00;99.90
3186;DHT22;1604;53.700;10.252;2023-04-12T12:56:29;9.10;99.90
3186;DHT22;1604;53.700;10.252;2023-04-12T12:59:31;9.20;99.90
3186;DHT22;1604;53.700;10.252;2023-04-12T13:02:33;9.20;99.90
3186;DHT22;1604;53.700;10.252;2023-04-12T13:05:35;9.10;99.90
3186;DHT22;1604;53.700;10.252;2023-04-12T13:08:38;9.10;99.90
3186;DHT22;1604;53.700;10.252;2023-04-12T13:11:40;9.00;99.90
3186;DHT22;1604;53.700;10.252;2023-04-12T13:14:42;9.00;99.90
3186;DHT22;1604;53.700;10.252;2023-04-12T13:17:44;9.00;99.90
3186;DHT22;1604;53.700;10.252;2023-04-12T13:20:46;8.90;99.90
3186;DHT22;1604;53.700;10.252;2023-04-12T13:23:51;8.80;99.90
3186;DHT22;1604;53.700;10.252;2023-04-12T13:26:53;8.80;99.90
3186;DHT22;1604;53.700;10.252;2023-04-12T13:29:55;8.70;99.90
3186;DHT22;1604;53.700;10.252;2023-04-12T13:32:57;8.80;99.90
3186;DHT22;1604;53.700;10.252;2023-04-12T13:35:59;8.80;99.90
3186;DHT22;1604;53.700;10.252;2023-04-12T13:39:02;8.80;99.90
3186;DHT22;1604;53.700;10.252;2023-04-12T13:42:06;8.90;99.90
3186;DHT22;1604;53.700;10.252;2023-04-12T13:45:09;9.00;99.90
3186;DHT22;1604;53.700;10.252;2023-04-12T13:48:11;9.00;99.90
3186;DHT22;1604;53.700;10.252;2023-04-12T13:51:13;9.10;99.90
3186;DHT22;1604;53.700;10.252;2023-04-12T13:54:17;9.10;99.90
3186;DHT22;1604;53.700;10.252;2023-04-12T13:57:19;9.20;99.90
3186;DHT22;1604;53.700;10.252;2023-04-12T14:00:21;9.20;99.90
3186;DHT22;1604;53.700;10.252;2023-04-12T14:03:23;9.20;99.90
3186;DHT22;1604;53.700;10.252;2023-04-12T14:06:25;9.20;99.90
3186;DHT22;1604;53.700;10.252;2023-04-12T14:09:30;9.20;99.90
3186;DHT22;1604;53.700;10.252;2023-04-12T14:12:33;9.20;99.90
3186;DHT22;1604;53.700;10.252;2023-04-12T14:15:35;9.20;99.90
3186;DHT22;1604;53.700;10.252;2023-04-12T14:18:37;9.20;99.90
3186;DHT22;1604;53.700;10.252;2023-04-12T14:21:39;9.20;99.90
3186;DHT22;1604;53.700;10.252;2023-04-12T14:24:42;9.10;99.90
3186;DHT22;1604;53.700;10.252;2023-04-12T14:27:44;9.10;99.90
3186;DHT22;1604;53.700;10.252;2023-04-12T14:30:49;9.10;99.90
3186;DHT22;1604;53.700;10.252;2023-04-12T14:33:51;9.10;99.90
3186;DHT22;1604;53.700;10.252;2023-04-12T14:36:54;9.00;99.90
3186;DHT22;1604;53.700;10.252;2023-04-12T14:39:57;9.00;99.90
3186;DHT22;1604;53.700;10.252;2023-04-12T14:42:59;9.10;99.90
3186;DHT22;1604;53.700;10.252;2023-04-12T14:46:01;9.10;99.90
3186;DHT22;1604;53.700;10.252;2023-04-12T14:49:03;9.10;99.90
3186;DHT22;1604;53.700;10.252;2023-04-12T14:52:05;9.10;99.90
3186;DHT22;1604;53.700;10.252;2023-04-12T14:55:09;9.10;99.90
3186;DHT22;1604;53.700;10.252;2023-04-12T14:58:11;9.10;99.90
3186;DHT22;1604;53.700;10.252;2023-04-12T15:01:13;9.10;99.90
3186;DHT22;1604;53.700;10.252;2023-04-12T15:04:16;9.10;99.90
3186;DHT22;1604;53.700;10.252;2023-04-12T15:07:18;9.00;99.90
3186;DHT22;1604;53.700;10.252;2023-04-12T15:10:21;9.00;99.90
3186;DHT22;1604;53.700;10.252;2023-04-12T15:13:23;9.00;99.90
3186;DHT22;1604;53.700;10.252;2023-04-12T15:16:27;9.00;99.90
3186;DHT22;1604;53.700;10.252;2023-04-12T15:19:30;9.00;99.90
3186;DHT22;1604;53.700;10.252;2023-04-12T15:22:33;9.00;99.90
3186;DHT22;1604;53.700;10.252;2023-04-12T15:25:37;8.90;99.90
3186;DHT22;1604;53.700;10.252;2023-04-12T15:28:39;8.90;99.90
3186;DHT22;1604;53.700;10.252;2023-04-12T15:31:41;8.90;99.90
3186;DHT22;1604;53.700;10.252;2023-04-12T15:34:43;8.90;99.90
3186;DHT22;1604;53.700;10.252;2023-04-12T15:37:45;8.80;99.90
3186;DHT22;1604;53.700;10.252;2023-04-12T15:40:52;8.80;99.90
3186;DHT22;1604;53.700;10.252;2023-04-12T15:43:55;8.80;99.90
3186;DHT22;1604;53.700;10.252;2023-04-12T15:46:57;8.80;99.90
3186;DHT22;1604;53.700;10.252;2023-04-12T15:49:59;8.90;99.90
3186;DHT22;1604;53.700;10.252;2023-04-12T15:53:01;8.90;99.90
3186;DHT22;1604;53.700;10.252;2023-04-12T15:56:05;8.90;99.90
3186;DHT22;1604;53.700;10.252;2023-04-12T15:59:08;9.00;99.90
3186;DHT22;1604;53.700;10.252;2023-04-12T16:02:11;9.00;99.90
3186;DHT22;1604;53.700;10.252;2023-04-12T16:05:13;9.10;99.90
3186;DHT22;1604;53.700;10.252;2023-04-12T16:08:16;9.10;99.90
3186;DHT22;1604;53.700;10.252;2023-04-12T16:11:21;9.10;99.90
3186;DHT22;1604;53.700;10.252;2023-04-12T16:14:24;9.10;99.90
3186;DHT22;1604;53.700;10.252;2023-04-12T16:17:25;9.10;99.90
3186;DHT22;1604;53.700;10.252;2023-04-12T16:20:28;9.00;99.90
3186;DHT22;1604;53.700;10.252;2023-04-12T16:23:30;9.00;99.90
3186;DHT22;1604;53.700;10.252;2023-04-12T16:26:34;9.00;99.90
3186;DHT22;1604;53.700;10.252;2023-04-12T16:29:36;8.90;99.90
3186;DHT22;1604;53.700;10.252;2023-04-12T16:32:39;8.90;99.90
3186;DHT22;1604;53.700;10.252;2023-04-12T16:35:41;8.90;99.90
3186;DHT22;1604;53.700;10.252;2023-04-12T16:38:44;8.80;99.90
3186;DHT22;1604;53.700;10.252;2023-04-12T16:41:47;8.80;99.90
3186;DHT22;1604;53.700;10.252;2023-04-12T16:44:49;8.80;99.90
3186;DHT22;1604;53.700;10.252;2023-04-12T16:47:51;8.80;99.90
3186;DHT22;1604;53.700;10.252;2023-04-12T16:50:54;8.80;99.90
3186;DHT22;1604;53.700;10.252;2023-04-12T16:53:56;8.80;99.90
3186;DHT22;1604;53.700;10.252;2023-04-12T16:57:00;8.80;99.90
3186;DHT22;1604;53.700;10.252;2023-04-12T17:00:02;8.80;99.90
3186;DHT22;1604;53.700;10.252;2023-04-12T17:03:12;8.80;99.90
3186;DHT22;1604;53.700;10.252;2023-04-12T17:06:15;8.70;99.90
3186;DHT22;1604;53.700;10.252;2023-04-12T17:09:18;8.80;99.90
3186;DHT22;1604;53.700;10.252;2023-04-12T17:12:24;8.80;99.90
3186;DHT22;1604;53.700;10.252;2023-04-12T17:15:27;8.70;99.90
3186;DHT22;1604;53.700;10.252;2023-04-12T17:18:30;8.70;99.90
3186;DHT22;1604;53.700;10.252;2023-04-12T17:21:39;8.70;99.90
3186;DHT22;1604;53.700;10.252;2023-04-12T17:24:42;8.70;99.90
3186;DHT22;1604;53.700;10.252;2023-04-12T17:27:45;8.70;99.90
3186;DHT22;1604;53.700;10.252;2023-04-12T17:30:47;8.70;99.90
3186;DHT22;1604;53.700;10.252;2023-04-12T17:33:50;8.70;99.90
3186;DHT22;1604;53.700;10.252;2023-04-12T17:36:52;8.70;99.90
3186;DHT22;1604;53.700;10.252;2023-04-12T17:39:55;8.60;99.90
3186;DHT22;1604;53.700;10.252;2023-04-12T17:42:59;8.70;99.90
3186;DHT22;1604;53.700;10.252;2023-04-12T17:46:01;8.70;99.90
3186;DHT22;1604;53.700;10.252;2023-04-12T17:49:03;8.70;99.90
3186;DHT22;1604;53.700;10.252;2023-04-12T17:52:06;8.70;99.90
3186;DHT22;1604;53.700;10.252;2023-04-12T17:55:09;8.70;99.90
3186;DHT22;1604;53.700;10.252;2023-04-12T17:58:13;8.70;99.90
3186;DHT22;1604;53.700;10.252;2023-04-12T18:01:15;8.60;99.90
3186;DHT22;1604;53.700;10.252;2023-04-12T18:04:17;8.60;99.90
3186;DHT22;1604;53.700;10.252;2023-04-12T18:07:19;8.60;99.90
3186;DHT22;1604;53.700;10.252;2023-04-12T18:10:22;8.60;99.90
3186;DHT22;1604;53.700;10.252;2023-04-12T18:13:27;8.60;99.90
3186;DHT22;1604;53.700;10.252;2023-04-12T18:16:29;8.60;99.90
3186;DHT22;1604;53.700;10.252;2023-04-12T18:19:32;8.60;99.90
3186;DHT22;1604;53.700;10.252;2023-04-12T18:22:34;8.60;99.90
3186;DHT22;1604;53.700;10.252;2023-04-12T18:25:37;8.60;99.90
3186;DHT22;1604;53.700;10.252;2023-04-12T18:28:40;8.60;99.90
3186;DHT22;1604;53.700;10.252;2023-04-12T18:31:42;8.60;99.90
3186;DHT22;1604;53.700;10.252;2023-04-12T18:34:44;8.60;99.90
3186;DHT22;1604;53.700;10.252;2023-04-12T18:37:46;8.60;99.90
3186;DHT22;1604;53.700;10.252;2023-04-12T18:40:47;8.60;99.90
3186;DHT22;1604;53.700;10.252;2023-04-12T18:43:51;8.60;99.90
3186;DHT22;1604;53.700;10.252;2023-04-12T18:46:53;8.60;99.90
3186;DHT22;1604;53.700;10.252;2023-04-12T18:49:55;8.60;99.90
3186;DHT22;1604;53.700;10.252;2023-04-12T18:52:57;8.60;99.90
3186;DHT22;1604;53.700;10.252;2023-04-12T18:56:06;8.50;99.90
3186;DHT22;1604;53.700;10.252;2023-04-12T18:59:10;8.60;99.90
3186;DHT22;1604;53.700;10.252;2023-04-12T19:02:16;8.60;99.90
3186;DHT22;1604;53.700;10.252;2023-04-12T19:05:19;8.60;99.90
3186;DHT22;1604;53.700;10.252;2023-04-12T19:08:21;8.50;99.90
3186;DHT22;1604;53.700;10.252;2023-04-12T19:11:23;8.50;99.90
3186;DHT22;1604;53.700;10.252;2023-04-12T19:14:27;8.50;99.90
3186;DHT22;1604;53.700;10.252;2023-04-12T19:17:30;8.60;99.90
3186;DHT22;1604;53.700;10.252;2023-04-12T19:20:36;8.50;99.90
3186;DHT22;1604;53.700;10.252;2023-04-12T19:23:38;8.60;99.90
3186;DHT22;1604;53.700;10.252;2023-04-12T19:26:40;8.70;99.90
3186;DHT22;1604;53.700;10.252;2023-04-12T19:29:47;8.70;99.90
3186;DHT22;1604;53.700;10.252;2023-04-12T19:32:50;8.60;99.90
3186;DHT22;1604;53.700;10.252;2023-04-12T19:35:52;8.60;99.90
3186;DHT22;1604;53.700;10.252;2023-04-12T19:38:56;8.60;99.90
3186;DHT22;1604;53.700;10.252;2023-04-12T19:41:58;8.50;99.90
3186;DHT22;1604;53.700;10.252;2023-04-12T19:45:02;8.50;99.90
3186;DHT22;1604;53.700;10.252;2023-04-12T19:48:04;8.50;99.90
3186;DHT22;1604;53.700;10.252;2023-04-12T19:51:06;8.40;99.90
3186;DHT22;1604;53.700;10.252;2023-04-12T19:54:09;8.40;99.90
3186;DHT22;1604;53.700;10.252;2023-04-12T19:57:11;8.30;99.90
3186;DHT22;1604;53.700;10.252;2023-04-12T20:00:15;8.30;99.90
3186;DHT22;1604;53.700;10.252;2023-04-12T20:03:20;8.30;99.90
3186;DHT22;1604;53.700;10.252;2023-04-12T20:06:22;8.30;99.90
3186;DHT22;1604;53.700;10.252;2023-04-12T20:09:28;8.30;99.90
3186;DHT22;1604;53.700;10.252;2023-04-12T20:12:30;8.30;99.90
3186;DHT22;1604;53.700;10.252;2023-04-12T20:15:34;8.30;99.90
3186;DHT22;1604;53.700;10.252;2023-04-12T20:18:38;8.30;99.90
3186;DHT22;1604;53.700;10.252;2023-04-12T20:21:40;8.20;99.90
3186;DHT22;1604;53.700;10.252;2023-04-12T20:24:43;8.10;99.90
3186;DHT22;1604;53.700;10.252;2023-04-12T20:27:47;8.10;99.90
3186;DHT22;1604;53.700;10.252;2023-04-12T20:30:52;7.90;99.90
3186;DHT22;1604;53.700;10.252;2023-04-12T20:33:54;7.80;99.90
3186;DHT22;1604;53.700;10.252;2023-04-12T20:36:57;7.70;99.90
3186;DHT22;1604;53.700;10.252;2023-04-12T20:39:59;7.60;99.90
3186;DHT22;1604;53.700;10.252;2023-04-12T20:43:05;7.50;99.90
3186;DHT22;1604;53.700;10.252;2023-04-12T20:46:09;7.40;99.90
3186;DHT22;1604;53.700;10.252;2023-04-12T20:49:15;7.40;99.90
3186;DHT22;1604;53.700;10.252;2023-04-12T20:52:16;7.30;99.90
3186;DHT22;1604;53.700;10.252;2023-04-12T20:55:19;7.30;99.90
3186;DHT22;1604;53.700;10.252;2023-04-12T20:58:22;7.20;99.90
3186;DHT22;1604;53.700;10.252;2023-04-12T21:01:25;7.10;99.90
3186;DHT22;1604;53.700;10.252;2023-04-12T21:04:27;7.10;99.90
3186;DHT22;1604;53.700;10.252;2023-04-12T21:07:29;7.00;99.90
3186;DHT22;1604;53.700;10.252;2023-04-12T21:10:31;6.90;99.90